Stoney Point, Missouri
Current Conditions -  °F | °C
As of 7:35 PM on Thursday 27 Nov 2014 (Local Time) from KFAM Reporting Station
Clear Clear  
Wind Chill: 28°   Ceiling: Unl
Heat Index: 28°   Visibility: 10mi
Dew Point: 21°   Wind: 0mph
Humidity: 74%   Direction: NA
Pressure: 30.44"   Gusts: NA
Location:  37.9132°N, 90.7°W
Report Text: KFAM 280135Z AUTO 00000KT 10SM CLR M02/M06 A3044 RMK AO1
Loading
Personal Weather Stations






























Interactive Weather Map New forecast layout! Learn more

10-Day Weather Forecast

Advertisements
Track Severe Weather on mobile